Alamo, Georgia
Current Conditions -  °F | °C
As of 3:00 PM on Friday 24 Oct 2014 (Local Time) from KAZE Reporting Station
Clear Clear  
Wind Chill: 74°   Ceiling: Unl
Heat Index: 74°   Visibility: 10mi
Dew Point: 46°   Wind: 0mph
Humidity: 37%   Direction: NA
Pressure: 29.99"   Gusts: NA
Location:  32.15°N, 82.78°W
Report Text: KAZE 241900Z AUTO 00000KT 10SM CLR 24/08 A2999 RMK AO2 T02360079
Loading
Personal Weather Stations






























Interactive Weather Map New forecast layout! Learn more

10-Day Weather Forecast

Advertisements
Track Severe Weather on mobile